createdAt,value
2018-09-15T00:01:46.758Z,1.80
2018-09-15T00:04:18.613Z,1.47
2018-09-15T00:06:50.399Z,1.40
2018-09-15T00:09:22.624Z,2.00
2018-09-15T00:11:54.353Z,1.57
2018-09-15T00:14:26.751Z,1.50
2018-09-15T00:16:58.526Z,1.73
2018-09-15T00:19:31.206Z,1.50
2018-09-15T00:22:03.406Z,1.90
2018-09-15T00:24:35.911Z,1.83
2018-09-15T00:27:08.540Z,1.40
2018-09-15T00:29:40.544Z,1.47
2018-09-15T00:32:13.032Z,1.37
2018-09-15T00:34:45.023Z,1.50
2018-09-15T00:37:17.165Z,1.27
2018-09-15T00:39:49.965Z,1.57
2018-09-15T00:42:22.106Z,1.40
2018-09-15T00:44:54.662Z,1.33
2018-09-15T00:47:27.043Z,1.30
2018-09-15T00:49:58.826Z,1.10
2018-09-15T00:52:30.602Z,1.40
2018-09-15T00:55:02.619Z,1.40
2018-09-15T00:57:34.418Z,1.60
2018-09-15T01:00:07.880Z,1.40
2018-09-15T01:02:40.008Z,1.20
2018-09-15T01:05:12.423Z,1.20
2018-09-15T01:07:44.792Z,1.70
2018-09-15T01:10:17.159Z,1.90
2018-09-15T01:12:49.763Z,1.40
2018-09-15T01:15:22.095Z,1.30
2018-09-15T01:17:54.304Z,1.70
2018-09-15T01:20:26.504Z,1.70
2018-09-15T01:22:58.553Z,1.60
2018-09-15T01:25:30.767Z,1.43
2018-09-15T01:28:02.938Z,1.30
2018-09-15T01:30:35.385Z,1.43
2018-09-15T01:33:08.058Z,1.70
2018-09-15T01:35:40.342Z,1.47
2018-09-15T01:38:12.902Z,1.77
2018-09-15T01:40:45.021Z,1.70
2018-09-15T01:43:19.529Z,1.50
2018-09-15T01:45:51.632Z,1.80
2018-09-15T01:48:24.001Z,1.73
2018-09-15T01:50:56.241Z,1.67
2018-09-15T01:53:28.339Z,1.40
2018-09-15T01:56:00.773Z,1.60
2018-09-15T01:58:33.201Z,1.60
2018-09-15T02:01:05.605Z,1.50
2018-09-15T02:03:37.921Z,1.67
2018-09-15T02:06:10.206Z,1.57
2018-09-15T02:08:42.597Z,1.87
2018-09-15T02:11:14.935Z,3.27
2018-09-15T02:13:48.214Z,2.10
2018-09-15T02:16:20.994Z,2.00
2018-09-15T02:18:53.168Z,1.90
2018-09-15T02:21:25.501Z,1.30
2018-09-15T02:23:58.018Z,1.53
2018-09-15T02:26:30.962Z,1.83
2018-09-15T02:29:03.728Z,1.93
2018-09-15T02:31:36.399Z,1.93
2018-09-15T02:34:09.050Z,2.27
2018-09-15T02:36:41.505Z,2.30
2018-09-15T02:39:14.610Z,1.60
2018-09-15T02:41:46.813Z,1.60
2018-09-15T02:44:19.813Z,1.57
2018-09-15T02:46:52.073Z,1.73
2018-09-15T02:49:23.995Z,1.30
2018-09-15T02:51:56.307Z,1.83
2018-09-15T02:54:28.503Z,1.67
2018-09-15T02:57:00.473Z,1.40
2018-09-15T02:59:32.728Z,1.57
2018-09-15T03:02:05.492Z,1.40
2018-09-15T03:04:37.869Z,1.40
2018-09-15T03:07:10.899Z,1.30
2018-09-15T03:09:43.435Z,1.73
2018-09-15T03:12:15.980Z,1.20
2018-09-15T03:14:48.538Z,1.70
2018-09-15T03:17:20.816Z,1.90
2018-09-15T03:19:53.443Z,1.60
2018-09-15T03:22:25.898Z,2.00
2018-09-15T03:24:58.505Z,1.53
2018-09-15T03:27:30.945Z,1.67
2018-09-15T03:30:03.559Z,1.80
2018-09-15T03:32:36.039Z,1.70
2018-09-15T03:35:08.343Z,1.67
2018-09-15T03:37:41.044Z,2.30
2018-09-15T03:40:13.593Z,1.90
2018-09-15T03:42:45.924Z,1.97
2018-09-15T03:45:18.094Z,2.30
2018-09-15T03:47:50.301Z,2.23
2018-09-15T03:50:22.596Z,2.30
2018-09-15T03:52:55.358Z,2.60
2018-09-15T03:55:27.548Z,2.60
2018-09-15T03:58:00.306Z,2.70
2018-09-15T04:00:32.818Z,2.80
2018-09-15T04:03:05.655Z,3.00
2018-09-15T04:05:38.042Z,3.13
2018-09-15T04:08:10.413Z,3.43
2018-09-15T04:10:42.387Z,2.90
2018-09-15T04:13:14.589Z,3.20
2018-09-15T04:15:46.910Z,3.30
2018-09-15T04:18:19.362Z,3.60
2018-09-15T04:20:51.405Z,2.83
2018-09-15T04:23:23.817Z,3.20
2018-09-15T04:25:55.977Z,4.07
2018-09-15T04:28:28.426Z,4.77
2018-09-15T04:31:01.767Z,4.53
2018-09-15T04:33:33.892Z,4.30
2018-09-15T04:36:06.652Z,4.87
2018-09-15T04:38:39.426Z,4.00
2018-09-15T04:41:11.754Z,6.23
2018-09-15T04:43:44.582Z,3.73
2018-09-15T04:46:17.571Z,3.80
2018-09-15T04:48:49.862Z,3.93
2018-09-15T04:51:21.904Z,4.43
2018-09-15T04:53:54.217Z,4.77
2018-09-15T04:56:26.129Z,6.47
2018-09-15T04:58:58.014Z,5.20
2018-09-15T05:01:30.427Z,5.10
2018-09-15T05:04:03.415Z,5.00
2018-09-15T05:06:35.494Z,5.00
2018-09-15T05:09:09.886Z,5.90
2018-09-15T05:11:41.764Z,5.70
2018-09-15T05:14:14.012Z,5.70
2018-09-15T05:16:45.928Z,5.47
2018-09-15T05:19:18.274Z,5.30
2018-09-15T05:21:50.811Z,5.47
2018-09-15T05:24:22.812Z,4.90
2018-09-15T05:26:55.628Z,4.60
2018-09-15T05:29:27.818Z,4.83
2018-09-15T05:32:00.157Z,4.87
2018-09-15T05:34:32.189Z,4.40
2018-09-15T05:37:04.315Z,4.70
2018-09-15T05:39:36.324Z,4.87
2018-09-15T05:42:09.196Z,4.47
2018-09-15T05:44:42.033Z,5.07
2018-09-15T05:47:14.394Z,4.60
2018-09-15T05:49:46.584Z,4.53
2018-09-15T05:52:19.136Z,5.10
2018-09-15T05:54:51.109Z,5.60
2018-09-15T05:57:23.501Z,5.90
2018-09-15T05:59:55.877Z,5.63
2018-09-15T06:02:28.405Z,5.77
2018-09-15T06:05:01.357Z,5.90
2018-09-15T06:07:34.846Z,6.10
2018-09-15T06:10:07.642Z,7.40
2018-09-15T06:12:39.745Z,6.63
2018-09-15T06:15:11.941Z,5.57
2018-09-15T06:17:44.304Z,5.97
2018-09-15T06:20:16.447Z,5.10
2018-09-15T06:22:48.821Z,5.33
2018-09-15T06:25:20.845Z,5.80
2018-09-15T06:27:52.857Z,5.83
2018-09-15T06:30:25.189Z,5.27
2018-09-15T06:32:57.769Z,5.20
2018-09-15T06:35:30.544Z,4.10
2018-09-15T06:38:02.882Z,4.47
2018-09-15T06:40:35.141Z,5.63
2018-09-15T06:43:07.197Z,5.70
2018-09-15T06:45:38.967Z,5.67
2018-09-15T06:48:11.205Z,5.63
2018-09-15T06:50:43.383Z,5.73
2018-09-15T06:53:15.842Z,5.93
2018-09-15T06:55:47.938Z,5.63
2018-09-15T06:58:20.350Z,5.80
2018-09-15T07:00:52.404Z,5.90
2018-09-15T07:03:24.706Z,6.73
2018-09-15T07:05:56.881Z,6.57
2018-09-15T07:08:29.897Z,6.57
2018-09-15T07:11:01.943Z,6.20
2018-09-15T07:13:34.187Z,7.57
2018-09-15T07:16:06.290Z,6.77
2018-09-15T07:18:38.460Z,6.70
2018-09-15T07:21:11.396Z,6.60
2018-09-15T07:23:43.955Z,6.43
2018-09-15T07:26:15.969Z,5.80
2018-09-15T07:28:48.431Z,5.53
2018-09-15T07:31:20.748Z,7.17
2018-09-15T07:33:53.462Z,5.73
2018-09-15T07:36:25.674Z,7.00
2018-09-15T07:38:57.988Z,7.70
2018-09-15T07:41:30.198Z,8.17
2018-09-15T07:44:02.958Z,8.03
2018-09-15T07:46:35.268Z,7.77
2018-09-15T07:49:07.422Z,8.00
2018-09-15T07:51:39.577Z,8.00
2018-09-15T07:54:12.134Z,6.97
2018-09-15T07:56:44.513Z,6.90
2018-09-15T07:59:16.459Z,7.00
2018-09-15T08:01:48.453Z,6.50
2018-09-15T08:04:20.607Z,6.33
2018-09-15T08:06:52.966Z,7.10
2018-09-15T08:09:24.942Z,6.30
2018-09-15T08:11:57.324Z,6.53
2018-09-15T08:14:30.358Z,6.70
2018-09-15T08:17:02.532Z,8.40
2018-09-15T08:19:34.844Z,7.60
2018-09-15T08:22:07.157Z,7.20
2018-09-15T08:24:39.534Z,6.80
2018-09-15T08:27:12.192Z,6.00
2018-09-15T08:29:45.277Z,6.10
2018-09-15T08:32:17.385Z,6.47
2018-09-15T08:34:50.223Z,6.73
2018-09-15T08:37:22.428Z,6.43
2018-09-15T08:39:54.489Z,6.10
2018-09-15T08:42:26.769Z,6.70
2018-09-15T08:44:59.321Z,6.67
2018-09-15T08:47:31.696Z,6.90
2018-09-15T08:50:03.986Z,6.90
2018-09-15T08:52:37.091Z,8.20
2018-09-15T08:55:09.449Z,9.30
2018-09-15T08:57:41.828Z,6.80
2018-09-15T09:00:14.017Z,6.67
2018-09-15T09:02:46.400Z,6.20
2018-09-15T09:05:18.735Z,5.40
2018-09-15T09:07:51.243Z,5.60
2018-09-15T09:10:23.852Z,6.20
2018-09-15T09:12:56.412Z,6.97
2018-09-15T09:15:28.801Z,7.37
2018-09-15T09:18:00.985Z,6.70
2018-09-15T09:20:33.363Z,7.00
2018-09-15T09:23:05.639Z,6.27
2018-09-15T09:25:38.412Z,6.60
2018-09-15T09:28:10.528Z,7.13
2018-09-15T09:30:42.930Z,5.83
2018-09-15T09:33:15.515Z,5.13
2018-09-15T09:35:47.639Z,4.70
2018-09-15T09:38:20.018Z,6.30
2018-09-15T09:40:52.161Z,6.70
2018-09-15T09:43:24.789Z,6.50
2018-09-15T09:45:57.275Z,6.77
2018-09-15T09:48:29.207Z,6.70
2018-09-15T09:51:01.726Z,7.07
2018-09-15T09:53:33.908Z,6.60
2018-09-15T09:56:06.361Z,7.03
2018-09-15T09:58:38.517Z,7.37
2018-09-15T10:01:15.174Z,6.57
2018-09-15T10:03:47.345Z,7.20
2018-09-15T10:06:19.369Z,6.60
2018-09-15T10:08:51.481Z,6.90
2018-09-15T10:11:23.755Z,6.00
2018-09-15T10:13:56.026Z,7.53
2018-09-15T10:16:28.198Z,6.90
2018-09-15T10:19:00.202Z,7.47
2018-09-15T10:21:32.604Z,7.20
2018-09-15T10:24:05.090Z,6.50
2018-09-15T10:26:37.286Z,6.93
2018-09-15T10:29:09.508Z,7.77
2018-09-15T10:31:41.599Z,7.50
2018-09-15T10:34:14.253Z,6.33
2018-09-15T10:36:46.565Z,6.43
2018-09-15T10:39:18.962Z,7.10
2018-09-15T10:41:51.320Z,7.90
2018-09-15T10:44:24.039Z,7.43
2018-09-15T10:46:56.075Z,7.87
2018-09-15T10:49:28.587Z,7.67
2018-09-15T10:52:01.473Z,8.60
2018-09-15T10:54:33.778Z,7.50
2018-09-15T10:57:05.870Z,8.20
2018-09-15T10:59:38.047Z,6.83
2018-09-15T11:02:13.931Z,7.70
2018-09-15T11:04:47.418Z,7.27
2018-09-15T11:07:19.663Z,7.70
2018-09-15T11:09:52.038Z,7.63
2018-09-15T11:12:24.156Z,7.07
2018-09-15T11:14:56.785Z,7.13
2018-09-15T11:17:29.081Z,6.70
2018-09-15T11:20:01.565Z,7.23
2018-09-15T11:22:33.744Z,7.50
2018-09-15T11:25:05.888Z,7.67
2018-09-15T11:27:38.165Z,7.40
2018-09-15T11:30:10.224Z,6.90
2018-09-15T11:32:42.537Z,6.73
2018-09-15T11:35:15.525Z,6.50
2018-09-15T11:37:47.858Z,5.97
2018-09-15T11:40:20.177Z,6.70
2018-09-15T11:42:52.500Z,6.70
2018-09-15T11:45:24.673Z,7.27
2018-09-15T11:47:56.928Z,6.70
2018-09-15T11:50:29.217Z,7.37
2018-09-15T11:53:01.843Z,6.97
2018-09-15T11:55:33.842Z,6.87
2018-09-15T11:58:05.877Z,6.80
2018-09-15T12:00:40.926Z,8.00
2018-09-15T12:03:12.822Z,6.30
2018-09-15T12:05:45.080Z,6.70
2018-09-15T12:08:17.477Z,6.30
2018-09-15T12:10:49.872Z,7.10
2018-09-15T12:13:22.347Z,7.30
2018-09-15T12:15:54.684Z,6.70
2018-09-15T12:18:26.663Z,6.77
2018-09-15T12:20:58.984Z,7.13
2018-09-15T12:23:31.222Z,7.00
2018-09-15T12:26:03.471Z,7.07
2018-09-15T12:28:35.666Z,7.13
2018-09-15T12:31:08.618Z,7.10
2018-09-15T12:33:40.916Z,6.90
2018-09-15T12:36:13.047Z,5.60
2018-09-15T12:38:45.502Z,7.50
2018-09-15T12:41:17.753Z,7.00
2018-09-15T12:43:49.462Z,5.83
2018-09-15T12:46:21.769Z,6.67
2018-09-15T12:48:54.089Z,5.90
2018-09-15T12:51:26.412Z,5.23
2018-09-15T12:53:58.710Z,5.60
2018-09-15T12:56:30.858Z,5.40
2018-09-15T12:59:03.070Z,5.90
2018-09-15T13:01:35.422Z,4.90
2018-09-15T13:04:08.050Z,5.60
2018-09-15T13:06:40.285Z,5.83
2018-09-15T13:09:13.837Z,5.40
2018-09-15T13:11:46.101Z,6.20
2018-09-15T13:14:18.521Z,5.50
2018-09-15T13:16:50.586Z,4.50
2018-09-15T13:19:22.966Z,5.57
2018-09-15T13:21:55.099Z,5.30
2018-09-15T13:24:27.282Z,5.87
2018-09-15T13:26:59.417Z,5.47
2018-09-15T13:29:31.499Z,5.30
2018-09-15T13:32:03.735Z,5.23
2018-09-15T13:34:35.749Z,5.17
2018-09-15T13:37:07.906Z,5.97
2018-09-15T13:39:40.738Z,5.17
2018-09-15T13:42:12.825Z,5.93
2018-09-15T13:44:45.448Z,4.57
2018-09-15T13:47:18.881Z,5.47
2018-09-15T13:49:51.041Z,6.50
2018-09-15T13:52:23.130Z,4.20
2018-09-15T13:54:55.522Z,4.93
2018-09-15T13:57:27.878Z,5.83
2018-09-15T14:00:00.122Z,5.07
2018-09-15T14:02:37.013Z,6.23
2018-09-15T14:05:09.405Z,4.93
2018-09-15T14:07:42.175Z,6.33
2018-09-15T14:10:19.013Z,5.27
2018-09-15T14:12:46.586Z,5.40
2018-09-15T14:15:18.931Z,5.27
2018-09-15T14:17:52.034Z,5.30
2018-09-15T14:20:24.362Z,5.90
2018-09-15T14:22:56.526Z,4.47
2018-09-15T14:25:28.863Z,5.27
2018-09-15T14:28:01.344Z,4.93
2018-09-15T14:30:33.870Z,4.47
2018-09-15T14:33:06.189Z,4.67
2018-09-15T14:35:38.509Z,4.10
2018-09-15T14:38:10.636Z,4.53
2018-09-15T14:40:43.467Z,4.23
2018-09-15T14:43:15.539Z,5.00
2018-09-15T14:45:48.129Z,4.53
2018-09-15T14:48:20.630Z,4.60
2018-09-15T14:50:52.840Z,4.33
2018-09-15T14:53:25.282Z,3.73
2018-09-15T14:55:57.370Z,3.67
2018-09-15T14:58:29.497Z,4.03
2018-09-15T15:01:01.598Z,4.60
2018-09-15T15:03:33.657Z,3.77
2018-09-15T15:06:06.073Z,3.73
2018-09-15T15:08:38.184Z,3.67
2018-09-15T15:11:10.409Z,3.40
2018-09-15T15:13:42.596Z,3.70
2018-09-15T15:16:15.335Z,4.00
2018-09-15T15:18:47.489Z,4.00
2018-09-15T15:21:19.665Z,3.70
2018-09-15T15:23:51.925Z,3.70
2018-09-15T15:26:23.985Z,4.10
2018-09-15T15:28:56.320Z,4.30
2018-09-15T15:31:28.525Z,3.67
2018-09-15T15:34:00.859Z,4.17
2018-09-15T15:36:33.164Z,4.10
2018-09-15T15:39:06.969Z,4.37
2018-09-15T15:41:39.379Z,4.50
2018-09-15T15:44:11.569Z,4.10
2018-09-15T15:46:43.860Z,3.73
2018-09-15T15:49:16.129Z,3.90
2018-09-15T15:51:48.616Z,3.93
2018-09-15T15:54:20.993Z,3.70
2018-09-15T15:56:53.111Z,4.40
2018-09-15T15:59:25.451Z,3.87
2018-09-15T16:01:57.857Z,3.83
2018-09-15T16:04:30.276Z,4.13
2018-09-15T16:07:02.583Z,4.43
2018-09-15T16:09:35.055Z,4.37
2018-09-15T16:12:07.583Z,4.17
2018-09-15T16:14:39.702Z,3.83
2018-09-15T16:17:11.838Z,3.80
2018-09-15T16:19:44.250Z,3.70
2018-09-15T16:22:16.773Z,4.73
2018-09-15T16:24:49.011Z,2.87
2018-09-15T16:27:21.097Z,3.10
2018-09-15T16:29:53.145Z,3.30
2018-09-15T16:32:25.694Z,4.20
2018-09-15T16:34:58.248Z,3.30
2018-09-15T16:37:30.584Z,2.73
2018-09-15T16:40:02.948Z,2.57
2018-09-15T16:42:35.117Z,2.97
2018-09-15T16:45:08.069Z,3.10
2018-09-15T16:47:40.095Z,2.27
2018-09-15T16:50:12.798Z,2.30
2018-09-15T16:52:45.401Z,2.80
2018-09-15T16:55:17.583Z,3.00
2018-09-15T16:57:50.020Z,3.00
2018-09-15T17:00:22.313Z,2.40
2018-09-15T17:02:54.745Z,2.30
2018-09-15T17:05:27.096Z,2.10
2018-09-15T17:07:59.277Z,2.40
2018-09-15T17:10:31.725Z,2.80
2018-09-15T17:13:03.961Z,3.30
2018-09-15T17:15:37.741Z,3.37
2018-09-15T17:18:09.781Z,3.00
2018-09-15T17:20:42.079Z,3.23
2018-09-15T17:23:14.457Z,2.80
2018-09-15T17:25:46.933Z,2.77
2018-09-15T17:28:19.737Z,2.60
2018-09-15T17:30:52.015Z,2.77
2018-09-15T17:33:24.399Z,2.13
2018-09-15T17:35:56.558Z,2.43
2018-09-15T17:38:29.587Z,2.87
2018-09-15T17:41:01.633Z,2.80
2018-09-15T17:43:33.677Z,2.60
2018-09-15T17:46:05.694Z,2.53
2018-09-15T17:48:38.156Z,3.30
2018-09-15T17:51:10.425Z,3.10
2018-09-15T17:53:42.762Z,2.90
2018-09-15T17:56:14.588Z,2.30
2018-09-15T17:58:46.797Z,2.50
2018-09-15T18:01:18.979Z,2.40
2018-09-15T18:03:51.370Z,3.17
2018-09-15T18:06:23.666Z,2.30
2018-09-15T18:08:55.868Z,2.73
2018-09-15T18:11:28.240Z,2.80
2018-09-15T18:14:00.797Z,2.97
2018-09-15T18:16:33.265Z,2.47
2018-09-15T18:19:05.753Z,2.40
2018-09-15T18:21:38.558Z,3.27
2018-09-15T18:24:10.942Z,2.47
2018-09-15T18:26:43.242Z,2.67
2018-09-15T18:29:16.147Z,2.50
2018-09-15T18:31:48.249Z,2.90
2018-09-15T18:34:20.603Z,2.67
2018-09-15T18:36:52.704Z,2.87
2018-09-15T18:39:25.519Z,3.13
2018-09-15T18:41:59.100Z,2.33
2018-09-15T18:44:32.065Z,2.93
2018-09-15T18:47:04.333Z,2.90
2018-09-15T18:49:36.920Z,2.30
2018-09-15T18:52:09.179Z,2.57
2018-09-15T18:54:42.781Z,3.13
2018-09-15T18:57:15.274Z,2.30
2018-09-15T18:59:47.739Z,2.33
2018-09-15T19:02:19.968Z,2.20
2018-09-15T19:04:52.164Z,2.30
2018-09-15T19:07:24.088Z,2.40
2018-09-15T19:09:56.277Z,2.90
2018-09-15T19:12:28.883Z,2.40
2018-09-15T19:15:01.180Z,2.40
2018-09-15T19:17:33.599Z,2.50
2018-09-15T19:20:05.845Z,2.77
2018-09-15T19:22:38.232Z,2.10
2018-09-15T19:25:10.547Z,2.93
2018-09-15T19:27:42.573Z,3.07
2018-09-15T19:30:14.951Z,1.80
2018-09-15T19:32:48.091Z,2.53
2018-09-15T19:35:20.472Z,2.47
2018-09-15T19:37:52.899Z,3.00
2018-09-15T19:40:25.233Z,2.70
2018-09-15T19:42:57.805Z,2.60
2018-09-15T19:45:30.440Z,1.57
2018-09-15T19:48:02.557Z,1.80
2018-09-15T19:50:35.256Z,3.70
2018-09-15T19:53:07.363Z,2.40
2018-09-15T19:55:39.662Z,2.10
2018-09-15T19:58:11.849Z,1.57
2018-09-15T20:00:44.221Z,1.90
2018-09-15T20:03:16.356Z,3.03
2018-09-15T20:05:48.707Z,2.00
2018-09-15T20:08:20.885Z,1.73
2018-09-15T20:10:53.186Z,1.73
2018-09-15T20:13:25.717Z,1.60
2018-09-15T20:15:55.381Z,1.73
2018-09-15T20:18:24.866Z,1.50
2018-09-15T20:20:54.059Z,1.90
2018-09-15T20:23:26.370Z,1.93
2018-09-15T20:25:58.470Z,2.40
2018-09-15T20:28:30.955Z,2.30
2018-09-15T20:31:03.156Z,2.27
2018-09-15T20:33:35.640Z,2.80
2018-09-15T20:36:07.927Z,2.03
2018-09-15T20:38:39.981Z,2.50
2018-09-15T20:41:12.005Z,2.07
2018-09-15T20:43:44.560Z,2.20
2018-09-15T20:46:17.268Z,2.27
2018-09-15T20:48:49.597Z,2.30
2018-09-15T20:51:21.882Z,2.10
2018-09-15T20:53:54.382Z,2.57
2018-09-15T20:56:26.471Z,2.87
2018-09-15T20:58:58.791Z,2.60
2018-09-15T21:01:31.158Z,2.80
2018-09-15T21:04:03.619Z,2.67
2018-09-15T21:06:36.165Z,2.60
2018-09-15T21:09:12.371Z,2.33
2018-09-15T21:11:45.099Z,2.87
2018-09-15T21:14:17.512Z,3.00
2018-09-15T21:16:49.880Z,2.40
2018-09-15T21:19:22.187Z,3.20
2018-09-15T21:21:54.512Z,2.80
2018-09-15T21:24:26.934Z,2.73
2018-09-15T21:26:59.056Z,2.50
2018-09-15T21:29:31.398Z,2.67
2018-09-15T21:32:03.258Z,2.77
2018-09-15T21:34:35.603Z,2.10
2018-09-15T21:37:07.430Z,2.33
2018-09-15T21:39:39.513Z,1.90
2018-09-15T21:42:11.321Z,1.73
2018-09-15T21:44:43.222Z,1.90
2018-09-15T21:47:15.986Z,1.93
2018-09-15T21:49:48.123Z,2.33
2018-09-15T21:52:20.473Z,1.77
2018-09-15T21:54:52.195Z,1.80
2018-09-15T21:57:24.062Z,2.70
2018-09-15T21:59:56.114Z,1.80
2018-09-15T22:02:28.746Z,1.97
2018-09-15T22:05:00.994Z,2.40
2018-09-15T22:07:33.072Z,2.40
2018-09-15T22:10:05.275Z,2.43
2018-09-15T22:12:38.010Z,2.60
2018-09-15T22:15:15.448Z,2.43
2018-09-15T22:17:47.653Z,3.00
2018-09-15T22:20:19.475Z,2.50
2018-09-15T22:22:51.920Z,2.40
2018-09-15T22:25:24.123Z,2.90
2018-09-15T22:27:56.308Z,2.60
2018-09-15T22:30:29.066Z,2.80
2018-09-15T22:33:02.326Z,2.73
2018-09-15T22:35:34.173Z,2.47
2018-09-15T22:38:06.058Z,2.27
2018-09-15T22:40:37.907Z,2.40
2018-09-15T22:43:09.890Z,3.00
2018-09-15T22:45:42.433Z,2.83
2018-09-15T22:48:15.261Z,3.40
2018-09-15T22:50:47.125Z,3.53
2018-09-15T22:53:19.378Z,2.60
2018-09-15T22:55:51.340Z,3.00
2018-09-15T22:58:24.700Z,3.17
2018-09-15T23:00:56.575Z,2.90
2018-09-15T23:03:28.905Z,3.30
2018-09-15T23:06:01.216Z,2.97
2018-09-15T23:08:33.359Z,4.10
2018-09-15T23:11:06.187Z,3.73
2018-09-15T23:13:38.678Z,5.50
2018-09-15T23:16:11.026Z,6.20
2018-09-15T23:18:43.524Z,5.70
2018-09-15T23:21:15.902Z,4.37
2018-09-15T23:23:48.398Z,2.67
2018-09-15T23:26:20.999Z,5.07
2018-09-15T23:28:53.316Z,4.27
2018-09-15T23:31:26.065Z,3.97
2018-09-15T23:33:58.308Z,2.80
2018-09-15T23:36:30.725Z,2.73
2018-09-15T23:39:02.864Z,2.50
2018-09-15T23:41:34.969Z,3.10
2018-09-15T23:44:07.768Z,2.03
2018-09-15T23:46:40.312Z,2.30
2018-09-15T23:49:13.098Z,3.10
2018-09-15T23:51:45.676Z,2.33
2018-09-15T23:54:18.275Z,2.67
2018-09-15T23:56:50.847Z,2.97
2018-09-15T23:59:23.048Z,2.50
